Time;durP1;ratioP1;P1;durP2;ratioP2;P2;SDS_P1;SDS_P2;PMS_P1;PMS_P2;Temp;Humidity;BMP_temperature;BMP_pressure;BME280_temperature;BME280_humidity;BME280_pressure;Samples;Min_cycle;Max_cycle;Signal;HPM_P1;HPM_P2
2021/10/21 00:02:14;;;;;;;13.68;8.30;;;13.00;99.90;;;;;;5059231;28;20183;-88
2021/10/21 00:04:40;;;;;;;12.95;7.90;;;13.00;99.90;;;;;;5058917;28;20179;-90
2021/10/21 00:07:06;;;;;;;15.30;7.95;;;13.20;99.90;;;;;;5093023;28;20178;-89
2021/10/21 00:09:32;;;;;;;10.13;7.95;;;13.00;99.90;;;;;;5075600;28;20178;-89
2021/10/21 00:11:58;;;;;;;14.68;8.32;;;13.10;99.90;;;;;;5075254;28;20631;-89
2021/10/21 00:14:24;;;;;;;11.85;7.80;;;13.10;99.90;;;;;;5059003;28;20189;-89
2021/10/21 00:16:50;;;;;;;12.90;8.50;;;13.10;99.90;;;;;;5058388;28;20213;-89
2021/10/21 00:19:15;;;;;;;16.85;8.13;;;13.10;99.90;;;;;;5058554;28;20178;-89
2021/10/21 00:21:41;;;;;;;11.45;8.18;;;13.00;99.90;;;;;;5093245;28;20206;-90
2021/10/21 00:24:07;;;;;;;13.07;7.78;;;13.00;99.90;;;;;;5075239;28;20175;-90
2021/10/21 00:26:32;;;;;;;13.25;8.20;;;13.00;99.90;;;;;;5075546;28;20205;-89
2021/10/21 00:28:58;;;;;;;15.75;7.82;;;13.00;99.90;;;;;;5093044;28;20206;-90
2021/10/21 00:31:24;;;;;;;12.45;7.82;;;;;;;;;;5084226;28;20182;-89
2021/10/21 00:33:50;;;;;;;11.70;7.93;;;13.10;99.90;;;;;;5082223;28;20213;-89
2021/10/21 00:36:15;;;;;;;15.80;8.05;;;13.10;99.90;;;;;;5082800;28;20258;-89
2021/10/21 00:38:41;;;;;;;10.95;7.78;;;13.00;99.90;;;;;;5076475;28;20174;-90
2021/10/21 00:41:07;;;;;;;12.23;8.23;;;;;;;;;;5100753;28;20185;-90
2021/10/21 00:43:40;;;;;;;15.15;8.45;;;13.10;99.90;;;;;;5073351;28;20677;-90
2021/10/21 00:46:08;;;;;;;11.80;8.75;;;13.10;99.90;;;;;;5104880;28;20178;-90
2021/10/21 00:48:35;;;;;;;11.05;7.85;;;13.10;99.90;;;;;;5087928;28;20182;-90
2021/10/21 00:51:06;;;;;;;14.00;8.00;;;13.10;99.90;;;;;;5079748;28;20177;-89
2021/10/21 00:53:32;;;;;;;11.50;7.80;;;13.10;99.90;;;;;;5073316;28;20220;-89
2021/10/21 00:55:58;;;;;;;13.70;8.38;;;13.10;99.90;;;;;;5056819;28;20214;-89
2021/10/21 00:58:24;;;;;;;13.85;8.20;;;13.10;99.90;;;;;;5041816;28;20576;-89
2021/10/21 01:00:50;;;;;;;15.02;8.18;;;13.00;99.90;;;;;;5058443;28;20275;-89
2021/10/21 01:03:16;;;;;;;15.75;8.43;;;13.10;99.90;;;;;;5040908;28;20198;-90
2021/10/21 01:05:41;;;;;;;10.82;7.45;;;13.00;99.90;;;;;;5091838;28;20795;-89
2021/10/21 01:08:07;;;;;;;15.20;8.48;;;13.00;99.90;;;;;;5059300;28;20554;-90
2021/10/21 01:10:36;;;;;;;15.93;8.20;;;13.00;99.90;;;;;;5076112;28;20522;-90
2021/10/21 01:13:01;;;;;;;16.27;8.70;;;13.00;99.90;;;;;;5058309;28;20180;-91
2021/10/21 01:15:27;;;;;;;14.75;8.07;;;12.90;99.90;;;;;;5057982;28;20189;-88
2021/10/21 01:17:56;;;;;;;15.35;8.50;;;12.90;99.90;;;;;;5074464;28;20218;-89
2021/10/21 01:20:23;;;;;;;16.90;8.70;;;12.90;99.90;;;;;;5096634;28;20175;-88
2021/10/21 01:22:49;;;;;;;16.20;8.35;;;12.90;99.90;;;;;;5096795;28;20219;-88
2021/10/21 01:25:16;;;;;;;17.38;8.65;;;13.00;99.90;;;;;;5061493;28;20639;-89
2021/10/21 01:27:43;;;;;;;12.73;7.85;;;13.00;99.90;;;;;;5061930;28;20639;-89
2021/10/21 01:30:24;;;;;;;12.30;8.02;;;12.90;99.90;;;;;;5096179;28;20621;-89
2021/10/21 01:32:52;;;;;;;19.02;8.70;;;13.00;99.90;;;;;;5095974;28;20679;-89
2021/10/21 01:35:17;;;;;;;14.73;8.30;;;13.00;99.90;;;;;;5060983;28;20312;-88
2021/10/21 01:37:43;;;;;;;15.23;7.93;;;13.00;99.90;;;;;;5078293;28;20297;-89
2021/10/21 01:40:11;;;;;;;14.05;8.90;;;13.00;99.90;;;;;;5060799;28;20223;-89
2021/10/21 01:42:40;;;;;;;11.32;7.68;;;13.00;99.90;;;;;;5078702;28;20649;-89
2021/10/21 01:45:39;;;;;;;16.73;8.82;;;13.00;99.90;;;;;;5077212;28;20202;-89
2021/10/21 01:48:05;;;;;;;13.73;7.85;;;13.00;99.90;;;;;;5040776;28;20279;-89
2021/10/21 01:50:32;;;;;;;14.30;8.98;;;12.90;99.90;;;;;;5077370;28;20218;-89
2021/10/21 01:52:57;;;;;;;11.50;7.80;;;12.90;99.90;;;;;;5061379;28;20182;-89
2021/10/21 01:55:24;;;;;;;11.25;8.02;;;12.90;99.90;;;;;;5077514;28;20182;-89
2021/10/21 01:57:50;;;;;;;11.52;8.60;;;12.90;99.90;;;;;;5078156;28;20309;-89
2021/10/21 02:00:19;;;;;;;13.63;9.00;;;12.90;99.90;;;;;;5077183;28;20194;-90
2021/10/21 02:02:46;;;;;;;13.07;8.55;;;12.90;99.90;;;;;;5103916;28;20186;-89
2021/10/21 02:05:12;;;;;;;12.90;8.35;;;12.90;99.90;;;;;;5077654;28;20205;-89
2021/10/21 02:07:38;;;;;;;13.00;7.90;;;13.00;99.90;;;;;;5087671;28;20192;-89
2021/10/21 02:10:09;;;;;;;13.60;8.60;;;13.00;99.90;;;;;;5087515;28;20639;-89
2021/10/21 02:12:35;;;;;;;13.73;9.00;;;13.00;99.90;;;;;;5087473;28;20182;-89
2021/10/21 02:15:01;;;;;;;19.17;9.18;;;13.00;99.90;;;;;;5089579;28;20634;-89
2021/10/21 02:17:26;;;;;;;14.25;8.77;;;13.00;99.90;;;;;;5086436;28;20666;-89
2021/10/21 02:19:52;;;;;;;20.85;8.95;;;12.90;99.90;;;;;;5086387;28;20623;-89
2021/10/21 02:22:19;;;;;;;15.85;8.57;;;12.90;99.90;;;;;;5087998;28;20239;-90
2021/10/21 02:24:45;;;;;;;11.02;8.57;;;12.80;99.90;;;;;;5088357;28;20205;-89
2021/10/21 02:27:11;;;;;;;13.38;8.77;;;12.80;99.90;;;;;;5088263;28;20181;-89
2021/10/21 02:29:36;;;;;;;13.10;8.90;;;12.80;99.90;;;;;;5104124;28;20220;-89
2021/10/21 02:32:02;;;;;;;16.10;8.88;;;12.80;99.90;;;;;;5055636;28;20232;-89
2021/10/21 02:34:28;;;;;;;13.05;8.80;;;12.90;99.90;;;;;;5097819;28;20177;-90
2021/10/21 02:36:54;;;;;;;11.38;8.65;;;12.90;99.90;;;;;;5081517;28;20690;-89
2021/10/21 02:39:20;;;;;;;14.52;9.07;;;;;;;;;;5115836;28;20524;-89
2021/10/21 02:41:46;;;;;;;13.15;8.80;;;12.80;99.90;;;;;;5116782;28;20174;-89
2021/10/21 02:44:11;;;;;;;14.75;8.85;;;12.80;99.90;;;;;;5081152;28;20227;-90
2021/10/21 02:46:37;;;;;;;14.70;8.60;;;12.80;99.90;;;;;;5117924;28;20166;-89
2021/10/21 02:49:03;;;;;;;15.02;8.85;;;12.90;99.90;;;;;;5106061;28;20162;-89
2021/10/21 02:51:29;;;;;;;14.38;8.75;;;12.80;99.90;;;;;;5109440;28;20174;-91
2021/10/21 02:53:55;;;;;;;14.68;8.73;;;;;;;;;;5080620;28;20174;-89
2021/10/21 02:56:21;;;;;;;15.30;9.10;;;12.70;99.90;;;;;;5115241;28;20218;-89
2021/10/21 02:58:47;;;;;;;15.52;8.13;;;;;;;;;;5115069;28;20217;-87
2021/10/21 03:01:13;;;;;;;14.63;9.38;;;12.60;99.90;;;;;;5115351;28;20204;-89
2021/10/21 03:03:39;;;;;;;13.10;9.23;;;12.60;99.90;;;;;;5080281;28;20185;-90
2021/10/21 03:06:05;;;;;;;15.98;9.75;;;12.60;99.90;;;;;;5096900;28;20301;-90
2021/10/21 03:08:30;;;;;;;14.00;9.73;;;12.60;99.90;;;;;;5079944;28;20178;-90
2021/10/21 03:10:56;;;;;;;14.50;9.50;;;;;;;;;;5097586;28;20641;-89
2021/10/21 03:13:22;;;;;;;18.90;10.38;;;12.60;99.90;;;;;;5097352;28;20642;-89
2021/10/21 03:15:48;;;;;;;15.65;9.35;;;12.50;99.90;;;;;;5089545;27;20165;-89
2021/10/21 03:18:14;;;;;;;19.75;9.73;;;;;;;;;;5139821;27;20162;-90
2021/10/21 03:20:39;;;;;;;15.63;9.32;;;12.50;99.90;;;;;;5109564;28;20626;-90
2021/10/21 03:23:05;;;;;;;21.05;10.10;;;12.50;99.90;;;;;;5063258;28;20181;-88
2021/10/21 03:25:31;;;;;;;16.55;9.65;;;12.40;99.90;;;;;;5114541;28;20174;-89
2021/10/21 03:27:57;;;;;;;14.75;9.63;;;12.40;99.90;;;;;;5079464;28;20223;-89
2021/10/21 03:30:23;;;;;;;16.60;9.20;;;12.40;99.90;;;;;;5096249;28;20253;-89
2021/10/21 03:32:49;;;;;;;17.98;9.57;;;12.40;99.90;;;;;;5096432;28;20697;-89
2021/10/21 03:35:15;;;;;;;19.45;10.05;;;12.30;99.90;;;;;;5079031;28;20679;-89
2021/10/21 03:37:41;;;;;;;13.52;9.15;;;;;;;;;;5114633;28;20201;-90
2021/10/21 03:40:08;;;;;;;15.63;9.88;;;12.30;99.90;;;;;;5079503;28;20178;-88
2021/10/21 03:42:34;;;;;;;17.55;9.43;;;12.30;99.90;;;;;;5095281;28;20178;-89
2021/10/21 03:44:59;;;;;;;15.15;10.70;;;12.30;99.90;;;;;;5096099;28;20184;-89
2021/10/21 03:47:26;;;;;;;15.30;9.48;;;12.40;99.90;;;;;;5096010;28;20212;-89
2021/10/21 03:49:52;;;;;;;17.15;9.90;;;12.30;99.90;;;;;;5079264;28;20181;-89
2021/10/21 03:52:18;;;;;;;13.57;8.85;;;12.40;99.90;;;;;;5095770;28;20182;-89
2021/10/21 03:54:45;;;;;;;15.07;10.38;;;12.30;99.90;;;;;;5095991;28;20189;-89
2021/10/21 03:57:11;;;;;;;15.18;9.63;;;12.40;99.90;;;;;;5096045;28;20221;-89
2021/10/21 03:59:37;;;;;;;14.02;9.55;;;12.50;99.90;;;;;;5078732;28;20223;-89
2021/10/21 04:02:03;;;;;;;15.30;9.35;;;12.40;99.90;;;;;;5095910;28;20626;-89
2021/10/21 04:04:29;;;;;;;15.43;9.73;;;12.40;99.90;;;;;;5077095;28;20200;-90
2021/10/21 04:06:55;;;;;;;17.73;9.65;;;;;;;;;;5094310;28;20720;-89
2021/10/21 04:09:21;;;;;;;14.10;9.40;;;12.30;99.90;;;;;;5093958;28;20185;-88
2021/10/21 04:11:47;;;;;;;15.88;9.68;;;;;;;;;;5111230;28;20182;-88
2021/10/21 04:14:12;;;;;;;15.77;9.18;;;12.40;99.90;;;;;;5091615;28;20189;-88
2021/10/21 04:16:38;;;;;;;29.35;15.07;;;12.40;99.90;;;;;;5102932;28;20206;-88
2021/10/21 04:19:04;;;;;;;15.35;9.68;;;12.50;99.90;;;;;;5079415;28;20576;-87
2021/10/21 04:21:30;;;;;;;16.70;11.93;;;12.60;99.90;;;;;;5073221;28;20178;-87
2021/10/21 04:23:56;;;;;;;15.63;9.27;;;12.40;99.90;;;;;;5085190;28;20178;-86
2021/10/21 04:26:22;;;;;;;13.18;9.43;;;;;;;;;;5103421;28;20186;-87
2021/10/21 04:28:48;;;;;;;15.05;9.95;;;12.60;99.90;;;;;;5087328;28;20197;-87
2021/10/21 04:31:16;;;;;;;14.98;8.52;;;12.60;99.90;;;;;;5073784;28;20203;-88
2021/10/21 04:33:41;;;;;;;14.52;9.48;;;12.60;99.90;;;;;;5083458;28;20177;-87
2021/10/21 04:36:07;;;;;;;16.42;9.05;;;12.60;99.90;;;;;;5080067;28;20234;-86
2021/10/21 04:38:33;;;;;;;15.88;10.50;;;;;;;;;;5101415;28;20642;-87
2021/10/21 04:40:59;;;;;;;21.33;10.43;;;12.60;99.90;;;;;;5096349;28;20643;-86
2021/10/21 04:43:24;;;;;;;16.13;9.55;;;12.60;99.90;;;;;;5072613;28;20190;-88
2021/10/21 04:45:51;;;;;;;17.90;10.02;;;12.60;99.90;;;;;;5077723;28;20197;-88
2021/10/21 04:48:16;;;;;;;15.70;10.10;;;12.70;99.90;;;;;;5075667;28;20182;-88
2021/10/21 04:50:42;;;;;;;13.88;9.23;;;;;;;;;;5078511;28;20189;-89
2021/10/21 04:53:11;;;;;;;15.98;9.02;;;12.80;99.90;;;;;;5089714;28;20290;-88
2021/10/21 04:55:37;;;;;;;15.45;8.88;;;12.90;99.90;;;;;;5093826;28;20261;-88
2021/10/21 04:58:04;;;;;;;16.33;10.00;;;12.80;99.90;;;;;;5101936;28;20297;-89
2021/10/21 05:00:30;;;;;;;16.30;10.13;;;12.60;99.90;;;;;;5097432;28;20217;-88
2021/10/21 05:02:57;;;;;;;19.75;9.52;;;12.60;99.90;;;;;;5117483;28;20201;-89
2021/10/21 05:05:22;;;;;;;17.88;9.80;;;12.50;99.90;;;;;;5089942;28;20213;-89
2021/10/21 05:07:48;;;;;;;18.13;9.43;;;12.50;99.90;;;;;;5094925;28;20694;-89
2021/10/21 05:10:15;;;;;;;14.93;8.90;;;;;;;;;;5043115;28;20552;-89
2021/10/21 05:12:40;;;;;;;13.95;9.95;;;12.40;99.90;;;;;;5094379;28;20236;-88
2021/10/21 05:15:07;;;;;;;19.00;9.77;;;12.40;99.90;;;;;;5060761;28;20635;-88
2021/10/21 05:17:33;;;;;;;15.10;9.65;;;12.40;99.90;;;;;;5076521;28;20256;-87
2021/10/21 05:19:59;;;;;;;21.20;13.20;;;12.40;99.90;;;;;;5084836;28;20178;-89
2021/10/21 05:22:25;;;;;;;17.52;10.35;;;;;;;;;;5070241;28;20251;-89
2021/10/21 05:24:53;;;;;;;16.23;11.10;;;14.80;99.90;;;;;;5086787;28;20718;-88
2021/10/21 05:27:18;;;;;;;14.13;10.00;;;12.40;99.90;;;;;;5108299;28;20262;-88
2021/10/21 05:29:44;;;;;;;15.70;11.05;;;;;;;;;;5061058;28;20326;-89
2021/10/21 05:32:10;;;;;;;18.27;10.55;;;12.50;99.90;;;;;;5078308;28;20182;-88
2021/10/21 05:34:38;;;;;;;16.08;10.13;;;12.50;99.90;;;;;;5096005;28;20530;-86
2021/10/21 05:37:06;;;;;;;16.52;10.65;;;12.50;99.90;;;;;;5077674;28;20692;-86
2021/10/21 05:39:33;;;;;;;17.77;10.00;;;12.50;99.90;;;;;;5077516;28;20253;-87
2021/10/21 05:41:59;;;;;;;17.23;11.15;;;12.50;99.90;;;;;;5061269;28;20228;-88
2021/10/21 05:44:25;;;;;;;14.43;9.88;;;12.60;99.90;;;;;;5085532;28;20212;-87
2021/10/21 05:46:52;;;;;;;12.95;8.98;;;12.50;99.90;;;;;;5115999;28;20661;-88
2021/10/21 05:49:18;;;;;;;16.52;9.63;;;12.50;99.90;;;;;;5098534;28;20170;-88
2021/10/21 05:51:45;;;;;;;13.82;9.95;;;12.50;99.90;;;;;;5081449;28;20256;-87
2021/10/21 05:54:10;;;;;;;13.27;9.50;;;12.50;99.90;;;;;;5098626;28;20650;-87
2021/10/21 05:56:37;;;;;;;15.00;10.32;;;12.50;99.90;;;;;;5080711;28;20214;-88
2021/10/21 05:59:03;;;;;;;13.95;9.15;;;12.60;99.90;;;;;;5096793;28;20178;-86
2021/10/21 06:01:30;;;;;;;13.27;9.45;;;12.60;99.90;;;;;;5097664;28;20206;-89
2021/10/21 06:03:56;;;;;;;14.85;9.60;;;12.70;99.90;;;;;;5096477;28;20197;-88
2021/10/21 06:06:22;;;;;;;17.15;9.90;;;12.70;99.90;;;;;;5096488;28;20621;-88
2021/10/21 06:08:48;;;;;;;19.98;10.35;;;;;;;;;;5114256;28;20634;-87
2021/10/21 06:11:16;;;;;;;12.32;9.38;;;12.90;99.90;;;;;;5114784;28;20626;-88
2021/10/21 06:13:42;;;;;;;15.32;9.77;;;12.80;99.90;;;;;;5096070;28;20173;-88
2021/10/21 06:16:08;;;;;;;15.63;9.40;;;;;;;;;;5079898;28;20206;-89
2021/10/21 06:18:35;;;;;;;17.95;10.15;;;12.90;99.90;;;;;;5114658;28;20178;-87
2021/10/21 06:21:05;;;;;;;17.55;11.75;;;12.90;99.90;;;;;;5116226;28;20260;-86
2021/10/21 06:23:31;;;;;;;16.73;9.77;;;12.90;99.90;;;;;;5116191;28;20249;-88
2021/10/21 06:25:57;;;;;;;16.95;10.30;;;;;;;;;;5098158;28;20685;-88
2021/10/21 06:28:23;;;;;;;13.27;9.48;;;;;;;;;;5098056;28;20174;-88
2021/10/21 06:30:49;;;;;;;15.82;9.27;;;13.10;99.90;;;;;;5080665;28;20181;-87
2021/10/21 06:33:15;;;;;;;14.52;9.48;;;13.10;99.90;;;;;;5080865;28;20638;-86
2021/10/21 06:35:42;;;;;;;17.85;10.20;;;13.10;99.90;;;;;;5078075;28;20617;-88
2021/10/21 06:38:09;;;;;;;13.50;9.77;;;13.00;99.90;;;;;;5081113;28;20200;-88
2021/10/21 06:40:34;;;;;;;14.82;10.20;;;13.40;99.90;;;;;;5095967;28;20614;-88
2021/10/21 06:43:00;;;;;;;14.80;9.75;;;13.20;99.90;;;;;;5107914;28;20175;-88
2021/10/21 06:45:28;;;;;;;13.93;9.23;;;13.30;99.90;;;;;;5059163;28;20190;-87
2021/10/21 06:47:54;;;;;;;20.58;11.02;;;13.10;99.90;;;;;;5083800;28;20179;-88
2021/10/21 06:50:20;;;;;;;16.35;10.20;;;;;;;;;;5088556;28;20189;-87
2021/10/21 06:52:48;;;;;;;18.00;10.73;;;13.10;99.90;;;;;;5085731;28;20179;-88
2021/10/21 06:55:15;;;;;;;14.65;10.65;;;13.30;99.90;;;;;;5107925;28;20240;-88
2021/10/21 06:58:10;;;;;;;21.10;9.70;;;13.30;99.90;;;;;;5083139;28;20194;-89
2021/10/21 07:00:39;;;;;;;16.27;10.90;;;13.30;99.90;;;;;;5069269;28;20187;-87
2021/10/21 07:03:09;;;;;;;13.10;9.00;;;13.30;99.90;;;;;;5085682;28;20541;-87
2021/10/21 07:05:42;;;;;;;18.70;11.02;;;13.30;99.90;;;;;;5088306;28;20179;-89
2021/10/21 07:08:12;;;;;;;15.23;10.20;;;13.30;99.90;;;;;;5088723;28;20170;-89
2021/10/21 07:10:39;;;;;;;19.48;10.70;;;13.30;99.90;;;;;;5106398;28;20182;-89
2021/10/21 07:13:05;;;;;;;20.85;12.15;;;13.30;99.90;;;;;;5068486;28;20166;-88
2021/10/21 07:15:35;;;;;;;19.08;10.25;;;13.30;99.90;;;;;;5085473;28;20179;-88
2021/10/21 07:18:02;;;;;;;14.80;9.80;;;13.60;99.90;;;;;;5103767;28;20655;-88
2021/10/21 07:20:28;;;;;;;17.13;9.55;;;13.50;99.90;;;;;;5080560;28;20193;-88
2021/10/21 07:22:57;;;;;;;20.50;10.60;;;13.50;99.90;;;;;;5077027;28;20191;-88
2021/10/21 07:25:23;;;;;;;18.73;9.98;;;13.90;99.90;;;;;;5084057;28;20200;-88
2021/10/21 07:27:49;;;;;;;16.33;9.68;;;13.70;99.90;;;;;;5071267;28;20205;-88
2021/10/21 07:30:16;;;;;;;16.50;9.43;;;13.50;99.90;;;;;;5081510;28;20639;-88
2021/10/21 07:32:43;;;;;;;17.30;10.48;;;13.70;99.90;;;;;;5075073;28;20178;-88
2021/10/21 07:35:12;;;;;;;16.67;10.23;;;14.00;99.90;;;;;;5093633;28;20174;-88
2021/10/21 07:37:37;;;;;;;17.77;9.52;;;13.60;99.90;;;;;;5058356;28;20241;-86
2021/10/21 07:40:09;;;;;;;16.17;9.45;;;14.00;99.90;;;;;;5093250;28;20258;-88
2021/10/21 07:42:36;;;;;;;13.05;9.90;;;13.70;99.90;;;;;;5059675;28;20186;-88
2021/10/21 07:45:02;;;;;;;22.50;10.05;;;;;;;;;;5075682;28;20257;-87
2021/10/21 07:47:28;;;;;;;14.80;9.52;;;;;;;;;;5075905;28;20209;-88
2021/10/21 07:49:54;;;;;;;14.15;10.50;;;;;;;;;;5075237;28;20640;-88
2021/10/21 07:52:27;;;;;;;18.70;11.05;;;13.80;99.90;;;;;;5074074;28;20182;-88
2021/10/21 07:54:53;;;;;;;13.35;9.68;;;;;;;;;;5093582;28;20167;-87
2021/10/21 07:57:20;;;;;;;18.98;10.77;;;13.60;99.90;;;;;;5063397;28;20658;-87
2021/10/21 07:59:47;;;;;;;14.80;9.50;;;14.10;99.90;;;;;;5074547;28;20171;-87
2021/10/21 08:02:14;;;;;;;17.02;11.25;;;;;;;;;;5075018;28;20718;-87
2021/10/21 08:04:39;;;;;;;19.10;10.02;;;14.20;99.90;;;;;;5085409;28;20177;-88
2021/10/21 08:07:05;;;;;;;14.82;10.52;;;14.30;99.90;;;;;;5084600;28;20193;-87
2021/10/21 08:09:32;;;;;;;18.27;9.68;;;;;;;;;;5084192;28;20174;-87
2021/10/21 08:12:02;;;;;;;14.18;9.32;;;14.30;99.90;;;;;;5084175;28;20189;-87
2021/10/21 08:14:29;;;;;;;15.90;10.02;;;14.50;99.90;;;;;;5080312;28;20174;-88
2021/10/21 08:16:56;;;;;;;17.08;10.10;;;14.90;99.90;;;;;;5076225;28;20710;-87
2021/10/21 08:19:22;;;;;;;16.02;10.10;;;14.40;99.90;;;;;;5077230;28;20166;-88
2021/10/21 08:21:48;;;;;;;15.73;10.13;;;;;;;;;;5074297;28;20178;-89
2021/10/21 08:24:15;;;;;;;18.90;10.68;;;14.60;99.90;;;;;;5095672;28;20704;-88
2021/10/21 08:26:41;;;;;;;17.48;11.05;;;14.90;99.90;;;;;;5075776;28;20273;-88
2021/10/21 08:29:08;;;;;;;16.95;9.82;;;14.80;99.90;;;;;;5079919;28;20167;-89
2021/10/21 08:31:34;;;;;;;13.07;8.38;;;15.30;99.90;;;;;;5086091;28;20202;-87
2021/10/21 08:34:00;;;;;;;17.33;9.77;;;15.10;99.90;;;;;;5082076;28;20177;-89
2021/10/21 08:36:35;;;;;;;18.15;10.48;;;15.30;99.90;;;;;;5061164;28;20234;-88
2021/10/21 08:39:24;;;;;;;16.45;10.65;;;;;;;;;;5095943;28;20198;-88
2021/10/21 08:41:50;;;;;;;17.40;11.38;;;;;;;;;;5075868;28;20206;-88
2021/10/21 08:44:17;;;;;;;14.18;9.77;;;;;;;;;;5076995;28;20252;-88
2021/10/21 08:46:45;;;;;;;22.13;10.60;;;15.20;99.90;;;;;;5076844;28;20677;-88
2021/10/21 08:49:12;;;;;;;14.80;9.98;;;15.30;99.90;;;;;;5095627;28;20721;-88
2021/10/21 08:51:38;;;;;;;15.80;9.68;;;15.30;99.90;;;;;;5097437;28;20174;-87
2021/10/21 08:54:05;;;;;;;16.33;9.27;;;;;;;;;;5095002;28;20175;-87
2021/10/21 08:56:33;;;;;;;15.82;10.02;;;15.60;99.90;;;;;;5096288;28;20205;-88
2021/10/21 08:59:05;;;;;;;17.42;9.70;;;15.40;99.90;;;;;;5077186;28;20179;-89
2021/10/21 09:04:17;;;;;;;17.20;10.38;;;15.20;99.90;;;;;;5093584;28;20175;-88
2021/10/21 09:09:29;;;;;;;18.30;9.80;;;15.40;99.90;;;;;;5096961;28;20171;-88
2021/10/21 09:12:21;;;;;;;15.70;9.82;;;15.50;99.90;;;;;;5078421;28;20642;-88
2021/10/21 09:14:49;;;;;;;16.73;10.43;;;15.30;99.90;;;;;;5056984;28;20186;-88
2021/10/21 09:17:21;;;;;;;14.93;9.48;;;15.50;99.90;;;;;;5075002;28;20206;-87
2021/10/21 09:19:47;;;;;;;17.13;10.20;;;15.60;99.90;;;;;;5076278;28;20231;-88
2021/10/21 09:22:24;;;;;;;17.30;10.05;;;15.90;99.90;;;;;;5096774;28;20578;-88
2021/10/21 09:24:51;;;;;;;12.85;9.57;;;15.60;99.90;;;;;;5059371;28;20179;-88
2021/10/21 09:27:26;;;;;;;15.57;10.20;;;16.10;99.90;;;;;;5078249;28;20401;-88
2021/10/21 09:29:53;;;;;;;17.40;10.52;;;15.80;99.90;;;;;;5075157;28;20301;-89
2021/10/21 09:32:27;;;;;;;15.85;9.93;;;15.80;99.90;;;;;;5075276;28;20171;-88
2021/10/21 09:34:57;;;;;;;18.08;10.20;;;16.30;99.90;;;;;;5076152;28;20572;-88
2021/10/21 09:37:40;;;;;;;22.15;9.82;;;16.40;99.90;;;;;;5079407;28;20239;-88
2021/10/21 09:40:28;;;;;;;15.88;9.52;;;16.50;99.90;;;;;;5084888;28;20179;-91
2021/10/21 09:43:06;;;;;;;17.10;9.50;;;16.50;99.90;;;;;;5091021;28;20212;-88
2021/10/21 09:45:44;;;;;;;19.92;9.45;;;16.40;99.90;;;;;;5071002;28;20175;-87
2021/10/21 09:48:10;;;;;;;19.45;10.27;;;;;;;;;;5106519;28;20171;-89
2021/10/21 09:50:47;;;;;;;18.33;10.27;;;16.50;99.90;;;;;;5106276;28;20185;-88
2021/10/21 09:53:20;;;;;;;13.20;9.82;;;;;;;;;;5089135;28;20170;-88
2021/10/21 09:55:52;;;;;;;19.95;9.18;;;16.60;99.90;;;;;;5095503;28;20193;-92
2021/10/21 09:58:21;;;;;;;16.27;9.30;;;16.30;99.90;;;;;;5108300;28;20170;-86
2021/10/21 10:00:49;;;;;;;17.65;9.25;;;16.80;99.90;;;;;;5117558;28;20193;-87
2021/10/21 10:03:20;;;;;;;16.25;9.93;;;16.80;99.90;;;;;;5082914;28;20178;-91
2021/10/21 10:05:48;;;;;;;18.10;10.05;;;16.30;99.90;;;;;;5118061;28;20215;-86
2021/10/21 10:08:18;;;;;;;14.43;8.90;;;16.60;99.90;;;;;;5099654;28;20600;-88
2021/10/21 10:10:49;;;;;;;16.42;9.63;;;16.70;99.90;;;;;;5117987;28;20171;-87
2021/10/21 10:13:16;;;;;;;20.67;9.00;;;16.70;99.90;;;;;;5117937;28;20248;-87
2021/10/21 10:15:47;;;;;;;25.73;11.20;;;16.60;99.90;;;;;;5099765;28;20182;-86
2021/10/21 10:18:24;;;;;;;14.75;8.90;;;16.90;99.90;;;;;;5083698;28;20213;-87
2021/10/21 10:21:03;;;;;;;15.68;8.77;;;16.80;99.90;;;;;;5080258;28;20170;-87
2021/10/21 10:23:34;;;;;;;15.68;10.13;;;16.90;99.90;;;;;;5097270;28;20174;-88
2021/10/21 10:26:00;;;;;;;22.40;8.98;;;16.70;99.90;;;;;;5078875;28;20171;-87
2021/10/21 10:28:26;;;;;;;13.07;8.43;;;;;;;;;;5097020;28;20744;-87
2021/10/21 10:30:54;;;;;;;17.67;8.88;;;16.60;99.90;;;;;;5079916;28;20193;-88
2021/10/21 10:33:32;;;;;;;15.75;8.27;;;16.80;99.90;;;;;;5097709;28;20181;-87
2021/10/21 10:36:32;;;;;;;16.17;9.27;;;17.10;99.90;;;;;;5112143;28;20218;-85
2021/10/21 10:39:00;;;;;;;15.35;9.20;;;16.70;99.90;;;;;;5063332;28;20198;-85
2021/10/21 10:41:44;;;;;;;12.35;9.10;;;16.80;99.90;;;;;;5082307;28;20178;-90
2021/10/21 10:44:11;;;;;;;11.93;8.63;;;17.10;99.90;;;;;;5078653;28;20213;-89
2021/10/21 10:46:53;;;;;;;13.30;8.48;;;17.50;99.90;;;;;;5062296;28;20201;-89
2021/10/21 10:49:37;;;;;;;14.70;8.80;;;16.70;99.90;;;;;;5061923;28;20179;-87
2021/10/21 10:52:05;;;;;;;15.55;8.85;;;16.20;99.90;;;;;;5078969;28;20170;-88
2021/10/21 10:54:42;;;;;;;21.15;10.00;;;16.40;99.90;;;;;;5077854;28;20178;-87
2021/10/21 10:57:12;;;;;;;19.90;8.90;;;16.30;99.90;;;;;;5077757;28;20773;-87
2021/10/21 10:59:40;;;;;;;15.13;9.73;;;15.80;99.90;;;;;;5080348;28;20541;-89
2021/10/21 11:02:27;;;;;;;17.55;9.35;;;16.40;99.90;;;;;;5086763;28;20220;-87
2021/10/21 11:07:27;;;;;;;22.10;9.98;;;17.00;99.90;;;;;;5103705;28;20190;-87
2021/10/21 11:09:54;;;;;;;15.90;9.75;;;16.70;99.90;;;;;;5104388;28;20250;-86
2021/10/21 11:12:24;;;;;;;12.88;8.80;;;16.60;99.90;;;;;;5115170;28;20191;-86
2021/10/21 11:14:54;;;;;;;20.75;10.43;;;16.50;99.90;;;;;;5081195;28;20689;-89
2021/10/21 11:17:40;;;;;;;12.50;9.32;;;16.70;99.90;;;;;;5096957;28;20245;-88
2021/10/21 11:20:06;;;;;;;18.80;9.13;;;16.50;99.90;;;;;;5115831;28;20186;-88
2021/10/21 11:22:36;;;;;;;12.98;9.27;;;16.40;99.90;;;;;;5114531;28;20637;-88
2021/10/21 11:25:07;;;;;;;14.18;9.27;;;16.10;99.90;;;;;;5114636;28;20226;-90
2021/10/21 11:27:49;;;;;;;20.80;10.85;;;16.60;99.90;;;;;;5113426;28;20729;-88
2021/10/21 11:30:23;;;;;;;13.90;9.20;;;16.20;99.90;;;;;;5084949;28;20189;-92
2021/10/21 11:32:50;;;;;;;16.38;10.00;;;15.90;99.90;;;;;;5088195;28;20173;-90
2021/10/21 11:35:17;;;;;;;14.82;9.88;;;16.00;99.90;;;;;;5082479;28;20554;-89
2021/10/21 11:37:50;;;;;;;17.80;10.55;;;15.90;99.90;;;;;;5098312;28;20203;-89
2021/10/21 11:40:17;;;;;;;20.35;10.27;;;;;;;;;;5105013;28;20327;-89
2021/10/21 11:42:54;;;;;;;23.02;10.40;;;16.00;99.90;;;;;;5103028;28;20170;-89
2021/10/21 11:45:20;;;;;;;14.65;9.88;;;;;;;;;;5090115;28;20587;-89
2021/10/21 11:47:54;;;;;;;15.85;9.27;;;15.90;99.90;;;;;;5080965;28;20217;-88
2021/10/21 11:50:29;;;;;;;15.70;10.23;;;15.90;99.90;;;;;;5102083;28;20222;-89
2021/10/21 11:52:55;;;;;;;12.50;9.23;;;;;;;;;;5114163;28;20154;-88
2021/10/21 11:55:26;;;;;;;14.63;10.65;;;15.70;99.90;;;;;;5098403;28;20177;-89
2021/10/21 11:58:07;;;;;;;18.13;9.27;;;15.80;99.90;;;;;;5115323;28;20673;-88
2021/10/21 12:00:32;;;;;;;15.70;9.88;;;15.50;99.90;;;;;;5095790;28;20181;-89
2021/10/21 12:03:00;;;;;;;13.18;8.98;;;15.50;99.90;;;;;;5083887;28;20196;-91
2021/10/21 12:05:37;;;;;;;14.10;10.32;;;15.50;99.90;;;;;;5083468;28;20622;-89
2021/10/21 12:08:03;;;;;;;17.88;10.02;;;;;;;;;;5079867;28;20182;-90
2021/10/21 12:10:32;;;;;;;13.73;9.80;;;15.60;99.90;;;;;;5092512;28;20630;-89
2021/10/21 12:12:58;;;;;;;16.33;10.27;;;15.40;99.90;;;;;;5113968;28;20170;-89
2021/10/21 12:15:26;;;;;;;18.23;9.95;;;15.50;99.90;;;;;;5094170;28;20539;-88
2021/10/21 12:17:52;;;;;;;16.70;9.55;;;15.70;99.90;;;;;;5093816;28;20273;-89
2021/10/21 12:20:42;;;;;;;13.77;9.38;;;15.60;99.90;;;;;;5077431;28;20257;-88
2021/10/21 12:23:26;;;;;;;13.32;9.77;;;15.80;99.90;;;;;;5094275;28;20195;-89
2021/10/21 12:25:53;;;;;;;18.15;9.25;;;15.30;99.90;;;;;;5093901;28;20264;-89
2021/10/21 12:28:20;;;;;;;13.90;9.90;;;15.30;99.90;;;;;;5112126;28;20673;-88
2021/10/21 12:30:47;;;;;;;18.80;10.40;;;15.30;99.90;;;;;;5078257;28;20271;-88
2021/10/21 12:33:21;;;;;;;15.77;10.15;;;15.30;99.90;;;;;;5078622;28;20181;-89
2021/10/21 12:36:19;;;;;;;16.65;9.27;;;15.50;99.90;;;;;;5094961;28;20229;-89
2021/10/21 12:38:44;;;;;;;16.35;9.48;;;15.80;99.90;;;;;;5088437;28;20198;-88
2021/10/21 12:41:10;;;;;;;13.77;9.93;;;15.50;99.90;;;;;;5059733;28;20189;-88
2021/10/21 12:43:36;;;;;;;19.13;10.27;;;;;;;;;;5070061;28;20178;-88
2021/10/21 12:46:04;;;;;;;15.18;9.57;;;15.50;99.90;;;;;;5113945;28;20182;-89
2021/10/21 12:48:34;;;;;;;15.40;10.27;;;15.50;99.90;;;;;;5078850;28;20205;-90
2021/10/21 12:51:13;;;;;;;17.80;9.52;;;15.30;99.90;;;;;;5095321;28;20235;-89
2021/10/21 12:53:49;;;;;;;16.75;10.38;;;15.10;99.90;;;;;;5113446;28;20165;-88
2021/10/21 12:56:22;;;;;;;15.25;9.55;;;15.20;99.90;;;;;;5095594;28;20209;-87
2021/10/21 12:59:02;;;;;;;14.40;9.52;;;15.20;99.90;;;;;;5095783;28;20181;-89
2021/10/21 13:01:54;;;;;;;23.98;11.10;;;15.50;99.90;;;;;;5105651;28;20245;-88